createdAt,value
2023-01-28T00:01:57.072Z,5.70
2023-01-28T00:04:24.295Z,5.03
2023-01-28T00:06:51.671Z,5.33
2023-01-28T00:09:18.641Z,5.13
2023-01-28T00:11:45.620Z,4.97
2023-01-28T00:14:12.775Z,4.70
2023-01-28T00:16:39.817Z,5.10
2023-01-28T00:19:07.247Z,4.90
2023-01-28T00:21:34.666Z,4.97
2023-01-28T00:24:01.744Z,4.97
2023-01-28T00:26:28.615Z,4.73
2023-01-28T00:28:55.444Z,4.20
2023-01-28T00:31:24.709Z,4.60
2023-01-28T00:33:52.408Z,4.50
2023-01-28T00:36:21.784Z,4.27
2023-01-28T00:38:53.778Z,4.23
2023-01-28T00:41:22.238Z,5.37
2023-01-28T00:43:51.418Z,5.23
2023-01-28T00:46:19.044Z,5.20
2023-01-28T00:48:47.548Z,5.13
2023-01-28T00:51:17.593Z,5.27
2023-01-28T00:53:44.561Z,4.27
2023-01-28T00:56:14.520Z,4.43
2023-01-28T00:58:41.900Z,4.73
2023-01-28T01:01:12.680Z,4.60
2023-01-28T01:03:40.595Z,4.67
2023-01-28T01:06:09.029Z,5.87
2023-01-28T01:08:36.196Z,5.93
2023-01-28T01:11:03.950Z,6.63
2023-01-28T01:13:32.822Z,6.03
2023-01-28T01:16:27.685Z,6.00
2023-01-28T01:18:55.783Z,6.13
2023-01-28T01:21:25.152Z,5.53
2023-01-28T01:23:52.725Z,6.50
2023-01-28T01:26:19.874Z,5.80
2023-01-28T01:28:46.849Z,6.50
2023-01-28T01:31:15.579Z,6.87
2023-01-28T01:33:43.556Z,6.97
2023-01-28T01:36:11.805Z,6.70
2023-01-28T01:38:38.890Z,6.77
2023-01-28T01:41:06.278Z,7.40
2023-01-28T01:43:46.964Z,6.60
2023-01-28T01:46:14.699Z,7.80
2023-01-28T01:48:41.666Z,7.53
2023-01-28T01:51:11.882Z,7.83
2023-01-28T01:53:44.213Z,6.90
2023-01-28T01:56:14.951Z,7.17
2023-01-28T01:58:43.990Z,7.33
2023-01-28T02:01:11.134Z,7.97
2023-01-28T02:04:05.801Z,7.37
2023-01-28T02:06:33.432Z,7.93
2023-01-28T02:09:02.415Z,7.87
2023-01-28T02:11:32.814Z,7.53
2023-01-28T02:14:03.001Z,7.53
2023-01-28T02:16:31.447Z,7.27
2023-01-28T02:18:58.232Z,6.27
2023-01-28T02:21:48.225Z,6.53
2023-01-28T02:24:36.977Z,7.27
2023-01-28T02:27:11.486Z,7.03
2023-01-28T02:29:46.420Z,7.57
2023-01-28T02:32:34.433Z,6.60
2023-01-28T02:35:19.542Z,7.43
2023-01-28T02:38:00.942Z,7.43
2023-01-28T02:40:54.678Z,8.03
2023-01-28T02:43:40.570Z,7.73
2023-01-28T02:46:44.310Z,7.60
2023-01-28T02:49:31.022Z,7.40
2023-01-28T02:52:46.469Z,7.00
2023-01-28T02:55:35.610Z,7.40
2023-01-28T02:58:08.787Z,7.77
2023-01-28T03:00:45.091Z,8.77
2023-01-28T03:03:25.636Z,7.57
2023-01-28T03:06:04.292Z,7.33
2023-01-28T03:08:58.652Z,8.23
2023-01-28T03:11:45.346Z,7.90
2023-01-28T03:14:30.808Z,7.23
2023-01-28T03:17:18.964Z,7.87
2023-01-28T03:20:04.763Z,7.03
2023-01-28T03:22:53.465Z,7.77
2023-01-28T03:25:40.481Z,6.73
2023-01-28T03:28:31.368Z,7.27
2023-01-28T03:31:27.240Z,7.47
2023-01-28T03:34:15.712Z,7.23
2023-01-28T03:37:09.930Z,7.10
2023-01-28T03:39:46.505Z,8.07
2023-01-28T03:42:15.235Z,7.30
2023-01-28T03:44:56.132Z,7.03
2023-01-28T03:47:26.334Z,6.90
2023-01-28T03:49:55.552Z,7.27
2023-01-28T03:52:32.188Z,7.17
2023-01-28T03:55:15.082Z,6.77
2023-01-28T03:57:44.831Z,7.23
2023-01-28T04:00:13.184Z,6.83
2023-01-28T04:02:42.722Z,8.17
2023-01-28T04:05:15.954Z,6.97
2023-01-28T04:07:47.111Z,6.80
2023-01-28T04:10:46.210Z,6.97
2023-01-28T04:13:24.829Z,7.47
2023-01-28T04:15:52.853Z,7.33
2023-01-28T04:18:21.159Z,7.47
2023-01-28T04:20:50.257Z,7.53
2023-01-28T04:23:18.065Z,7.80
2023-01-28T04:25:45.325Z,6.97
2023-01-28T04:28:12.255Z,6.53
2023-01-28T04:30:39.153Z,6.87
2023-01-28T04:33:08.829Z,7.03
2023-01-28T04:35:54.197Z,6.77
2023-01-28T04:38:39.693Z,6.70
2023-01-28T04:41:19.058Z,7.20
2023-01-28T04:43:46.790Z,7.73
2023-01-28T04:46:32.510Z,6.90
2023-01-28T04:49:16.256Z,7.60
2023-01-28T04:51:51.799Z,7.13
2023-01-28T04:54:27.535Z,7.43
2023-01-28T04:56:58.518Z,7.50
2023-01-28T04:59:25.387Z,7.17
2023-01-28T05:01:52.460Z,7.53
2023-01-28T05:04:19.882Z,7.10
2023-01-28T05:06:47.201Z,7.07
2023-01-28T05:09:22.058Z,7.23
2023-01-28T05:11:50.797Z,7.43
2023-01-28T05:14:17.786Z,7.50
2023-01-28T05:16:54.868Z,7.23
2023-01-28T05:19:21.714Z,7.80
2023-01-28T05:21:48.487Z,6.87
2023-01-28T05:24:34.106Z,7.43
2023-01-28T05:27:00.970Z,7.80
2023-01-28T05:29:28.011Z,6.97
2023-01-28T05:31:54.781Z,7.03
2023-01-28T05:34:21.892Z,7.50
2023-01-28T05:36:49.034Z,7.23
2023-01-28T05:39:29.389Z,8.37
2023-01-28T05:41:56.265Z,7.63
2023-01-28T05:44:23.370Z,7.30
2023-01-28T05:47:08.835Z,7.33
2023-01-28T05:49:50.668Z,7.73
2023-01-28T05:52:56.250Z,6.43
2023-01-28T05:55:28.141Z,7.77
2023-01-28T05:57:55.637Z,7.57
2023-01-28T06:00:24.311Z,7.33
2023-01-28T06:02:52.461Z,7.07
2023-01-28T06:05:20.881Z,6.40
2023-01-28T06:07:48.634Z,6.37
2023-01-28T06:10:18.134Z,6.80
2023-01-28T06:12:45.393Z,7.33
2023-01-28T06:15:31.574Z,7.60
2023-01-28T06:18:23.902Z,6.80
2023-01-28T06:20:53.023Z,6.60
2023-01-28T06:23:19.807Z,6.53
2023-01-28T06:25:46.592Z,6.97
2023-01-28T06:28:15.541Z,7.20
2023-01-28T06:30:43.105Z,6.57
2023-01-28T06:33:10.023Z,6.53
2023-01-28T06:35:36.991Z,6.60
2023-01-28T06:38:04.677Z,6.80
2023-01-28T06:40:31.563Z,7.20
2023-01-28T06:42:58.349Z,5.97
2023-01-28T06:45:25.737Z,7.07
2023-01-28T06:47:52.523Z,6.33
2023-01-28T06:50:19.346Z,7.33
2023-01-28T06:52:46.160Z,6.57
2023-01-28T06:55:13.829Z,6.90
2023-01-28T06:57:41.527Z,6.87
2023-01-28T07:00:10.863Z,6.40
2023-01-28T07:02:37.962Z,6.90
2023-01-28T07:05:05.732Z,6.93
2023-01-28T07:07:33.283Z,6.10
2023-01-28T07:10:00.132Z,6.77
2023-01-28T07:12:27.003Z,6.47
2023-01-28T07:14:53.837Z,6.73
2023-01-28T07:17:20.910Z,7.10
2023-01-28T07:19:49.786Z,6.20
2023-01-28T07:22:16.693Z,6.50
2023-01-28T07:24:44.211Z,6.40
2023-01-28T07:27:11.374Z,6.70
2023-01-28T07:29:38.163Z,6.13
2023-01-28T07:32:07.364Z,6.70
2023-01-28T07:34:34.338Z,6.90
2023-01-28T07:37:01.717Z,6.77
2023-01-28T07:39:28.786Z,6.80
2023-01-28T07:41:55.630Z,6.53
2023-01-28T07:44:37.007Z,6.23
2023-01-28T07:47:05.130Z,5.90
2023-01-28T07:49:34.551Z,6.80
2023-01-28T07:52:01.408Z,6.30
2023-01-28T07:54:28.465Z,6.57
2023-01-28T07:56:55.334Z,7.03
2023-01-28T07:59:22.924Z,5.90
2023-01-28T08:01:49.711Z,5.90
2023-01-28T08:04:16.649Z,6.13
2023-01-28T08:06:44.029Z,6.20
2023-01-28T08:09:10.902Z,5.90
2023-01-28T08:11:38.937Z,6.60
2023-01-28T08:14:06.438Z,6.03
2023-01-28T08:16:33.466Z,6.70
2023-01-28T08:19:00.186Z,6.40
2023-01-28T08:21:27.035Z,5.80
2023-01-28T08:23:54.701Z,6.45
2023-01-28T08:26:21.552Z,6.63
2023-01-28T08:28:49.974Z,6.27
2023-01-28T08:31:18.152Z,6.03
2023-01-28T08:33:44.899Z,6.60
2023-01-28T08:36:11.740Z,6.60
2023-01-28T08:38:38.482Z,5.60
2023-01-28T08:41:05.214Z,6.53
2023-01-28T08:43:31.897Z,5.87
2023-01-28T08:45:59.048Z,6.03
2023-01-28T08:48:25.809Z,6.97
2023-01-28T08:50:52.654Z,6.13
2023-01-28T08:53:20.536Z,6.43
2023-01-28T08:55:48.532Z,6.37
2023-01-28T08:58:17.202Z,5.53
2023-01-28T09:00:45.099Z,7.47
2023-01-28T09:03:11.921Z,6.10
2023-01-28T09:05:39.509Z,6.40
2023-01-28T09:08:11.538Z,6.47
2023-01-28T09:10:38.915Z,7.03
2023-01-28T09:13:07.817Z,6.77
2023-01-28T09:15:35.184Z,6.60
2023-01-28T09:18:02.293Z,7.13
2023-01-28T09:20:29.037Z,7.87
2023-01-28T09:22:55.974Z,7.10
2023-01-28T09:25:23.341Z,7.50
2023-01-28T09:27:50.660Z,7.23
2023-01-28T09:30:18.043Z,6.47
2023-01-28T09:32:45.209Z,7.30
2023-01-28T09:35:12.548Z,7.57
2023-01-28T09:37:39.335Z,6.70
2023-01-28T09:40:06.811Z,6.90
2023-01-28T09:42:48.591Z,6.87
2023-01-28T09:45:24.113Z,7.33
2023-01-28T09:48:00.123Z,6.50
2023-01-28T09:50:32.885Z,6.40
2023-01-28T09:53:30.779Z,6.50
2023-01-28T09:56:01.974Z,6.72
2023-01-28T09:58:28.853Z,6.50
2023-01-28T10:01:23.496Z,6.33
2023-01-28T10:04:09.269Z,7.17
2023-01-28T10:07:03.589Z,6.90
2023-01-28T10:09:48.998Z,6.90
2023-01-28T10:12:15.778Z,6.23
2023-01-28T10:15:30.313Z,6.30
2023-01-28T10:18:16.119Z,6.40
2023-01-28T10:20:45.477Z,6.63
2023-01-28T10:23:31.081Z,6.73
2023-01-28T10:25:59.370Z,6.67
2023-01-28T10:28:28.902Z,6.73
2023-01-28T10:30:56.023Z,7.10
2023-01-28T10:33:33.663Z,7.17
2023-01-28T10:36:00.722Z,6.90
2023-01-28T10:38:43.769Z,6.70
2023-01-28T10:41:11.940Z,7.47
2023-01-28T10:43:40.681Z,7.03
2023-01-28T10:46:21.646Z,7.30
2023-01-28T10:49:04.642Z,7.00
2023-01-28T10:51:37.335Z,6.37
2023-01-28T10:54:06.241Z,7.37
2023-01-28T10:56:36.270Z,7.00
2023-01-28T10:59:18.917Z,7.57
2023-01-28T11:01:48.384Z,7.43
2023-01-28T11:04:18.983Z,7.70
2023-01-28T11:06:58.956Z,6.47
2023-01-28T11:09:31.392Z,6.82
2023-01-28T11:11:59.419Z,6.75
2023-01-28T11:14:27.785Z,6.87
2023-01-28T11:16:56.401Z,6.40
2023-01-28T11:19:36.899Z,6.83
2023-01-28T11:22:03.882Z,7.37
2023-01-28T11:24:32.449Z,6.60
2023-01-28T11:27:11.744Z,7.00
2023-01-28T11:29:40.043Z,7.50
2023-01-28T11:32:19.682Z,6.77
2023-01-28T11:34:51.894Z,6.77
2023-01-28T11:37:21.833Z,6.73
2023-01-28T11:39:49.006Z,6.13
2023-01-28T11:42:19.663Z,6.73
2023-01-28T11:44:47.469Z,6.30
2023-01-28T11:47:27.620Z,6.40
2023-01-28T11:50:11.205Z,6.80
2023-01-28T11:53:06.412Z,7.20
2023-01-28T11:56:10.972Z,6.90
2023-01-28T11:59:09.359Z,6.87
2023-01-28T12:01:47.867Z,7.17
2023-01-28T12:04:26.050Z,6.63
2023-01-28T12:07:05.855Z,6.87
2023-01-28T12:09:57.545Z,7.97
2023-01-28T12:12:45.995Z,7.17
2023-01-28T12:15:43.808Z,7.63
2023-01-28T12:18:20.012Z,8.03
2023-01-28T12:21:09.281Z,8.20
2023-01-28T12:23:51.376Z,8.87
2023-01-28T12:26:36.046Z,9.00
2023-01-28T12:29:08.038Z,8.60
2023-01-28T12:31:53.168Z,8.30
2023-01-28T12:34:37.074Z,9.30
2023-01-28T12:37:25.632Z,8.03
2023-01-28T12:40:15.977Z,8.27
2023-01-28T12:42:50.251Z,8.97
2023-01-28T12:45:49.643Z,9.47
2023-01-28T12:48:27.606Z,8.57
2023-01-28T12:51:00.811Z,7.87
2023-01-28T12:53:29.427Z,7.90
2023-01-28T12:56:20.038Z,8.17
2023-01-28T12:59:00.921Z,8.57
2023-01-28T13:01:35.535Z,7.50
2023-01-28T13:04:08.292Z,8.00
2023-01-28T13:06:49.901Z,7.97
2023-01-28T13:09:24.041Z,8.10
2023-01-28T13:11:52.476Z,8.63
2023-01-28T13:14:28.427Z,8.00
2023-01-28T13:16:55.424Z,7.50
2023-01-28T13:19:24.984Z,7.07
2023-01-28T13:21:52.191Z,6.97
2023-01-28T13:24:24.338Z,7.33
2023-01-28T13:26:54.780Z,7.37
2023-01-28T13:29:24.770Z,7.43
2023-01-28T13:31:57.150Z,7.47
2023-01-28T13:34:34.639Z,7.07
2023-01-28T13:37:05.993Z,7.77
2023-01-28T13:39:34.870Z,8.10
2023-01-28T13:42:23.108Z,8.13
2023-01-28T13:44:50.121Z,8.00
2023-01-28T13:47:41.299Z,8.27
2023-01-28T13:50:16.146Z,8.10
2023-01-28T13:52:46.080Z,7.27
2023-01-28T13:55:13.114Z,7.80
2023-01-28T13:58:11.060Z,7.80
2023-01-28T14:01:02.773Z,8.17
2023-01-28T14:04:00.515Z,7.87
2023-01-28T14:06:57.026Z,7.50
2023-01-28T14:09:32.164Z,7.90
2023-01-28T14:12:31.182Z,7.37
2023-01-28T14:15:25.158Z,7.70
2023-01-28T14:17:57.325Z,7.67
2023-01-28T14:20:29.715Z,7.70
2023-01-28T14:23:05.948Z,7.67
2023-01-28T14:25:45.044Z,8.00
2023-01-28T14:28:17.925Z,7.80
2023-01-28T14:30:53.466Z,7.83
2023-01-28T14:33:21.842Z,9.53
2023-01-28T14:35:49.759Z,8.33
2023-01-28T14:38:21.620Z,9.40
2023-01-28T14:40:55.805Z,8.97
2023-01-28T14:43:27.127Z,8.67
2023-01-28T14:46:15.607Z,8.20
2023-01-28T14:49:05.639Z,6.87
2023-01-28T14:51:38.480Z,7.53
2023-01-28T14:54:20.088Z,8.50
2023-01-28T14:56:50.167Z,7.07
2023-01-28T14:59:27.438Z,8.00
2023-01-28T15:01:59.694Z,8.17
2023-01-28T15:04:27.915Z,7.87
2023-01-28T15:06:55.236Z,7.63
2023-01-28T15:09:23.025Z,7.60
2023-01-28T15:11:52.899Z,7.90
2023-01-28T15:14:27.177Z,8.30
2023-01-28T15:16:54.628Z,19.47
2023-01-28T15:19:27.199Z,12.27
2023-01-28T15:21:56.557Z,9.43
2023-01-28T15:24:23.623Z,7.97
2023-01-28T15:26:50.913Z,8.07
2023-01-28T15:29:35.452Z,8.10
2023-01-28T15:32:04.030Z,8.07
2023-01-28T15:34:31.311Z,8.10
2023-01-28T15:36:59.353Z,8.57
2023-01-28T15:39:28.466Z,7.90
2023-01-28T15:42:06.120Z,8.40
2023-01-28T15:44:38.208Z,8.13
2023-01-28T15:47:16.707Z,8.63
2023-01-28T15:49:48.661Z,8.33
2023-01-28T15:52:15.702Z,8.37
2023-01-28T15:54:44.719Z,9.80
2023-01-28T15:57:25.044Z,8.60
2023-01-28T15:59:51.896Z,9.20
2023-01-28T16:02:23.973Z,10.80
2023-01-28T16:05:01.635Z,11.47
2023-01-28T16:07:31.831Z,11.20
2023-01-28T16:10:00.188Z,10.13
2023-01-28T16:12:27.406Z,9.50
2023-01-28T16:14:59.434Z,9.50
2023-01-28T16:17:39.232Z,7.70
2023-01-28T16:20:08.955Z,8.90
2023-01-28T16:22:37.873Z,9.03
2023-01-28T16:25:31.479Z,8.57
2023-01-28T16:27:59.545Z,9.70
2023-01-28T16:30:26.903Z,10.50
2023-01-28T16:32:55.753Z,10.87
2023-01-28T16:35:28.471Z,9.70
2023-01-28T16:37:58.686Z,10.60
2023-01-28T16:40:26.835Z,11.00
2023-01-28T16:42:55.765Z,9.60
2023-01-28T16:45:24.402Z,10.67
2023-01-28T16:47:52.360Z,9.20
2023-01-28T16:50:22.160Z,8.63
2023-01-28T16:52:51.261Z,10.43
2023-01-28T16:55:20.069Z,10.60
2023-01-28T16:57:50.447Z,9.47
2023-01-28T17:00:18.553Z,8.77
2023-01-28T17:02:45.605Z,7.87
2023-01-28T17:05:13.544Z,7.77
2023-01-28T17:07:42.569Z,8.10
2023-01-28T17:10:10.169Z,10.13
2023-01-28T17:12:36.897Z,9.77
2023-01-28T17:15:04.174Z,9.27
2023-01-28T17:17:31.258Z,8.87
2023-01-28T17:19:58.029Z,9.83
2023-01-28T17:22:24.915Z,9.67
2023-01-28T17:24:52.212Z,9.67
2023-01-28T17:27:19.336Z,9.27
2023-01-28T17:29:46.414Z,8.50
2023-01-28T17:32:13.758Z,8.47
2023-01-28T17:34:40.754Z,8.57
2023-01-28T17:37:07.546Z,8.67
2023-01-28T17:39:34.801Z,9.27
2023-01-28T17:42:01.845Z,9.10
2023-01-28T17:44:38.678Z,9.40
2023-01-28T17:47:09.890Z,8.23
2023-01-28T17:49:41.959Z,9.03
2023-01-28T17:52:09.226Z,9.27
2023-01-28T17:54:36.274Z,9.20
2023-01-28T17:57:03.124Z,10.57
2023-01-28T17:59:30.507Z,10.93
2023-01-28T18:01:58.023Z,9.53
2023-01-28T18:04:25.737Z,9.67
2023-01-28T18:06:52.922Z,9.27
2023-01-28T18:09:21.442Z,8.70
2023-01-28T18:11:49.133Z,9.23
2023-01-28T18:14:16.105Z,8.90
2023-01-28T18:16:43.221Z,9.30
2023-01-28T18:19:10.614Z,9.53
2023-01-28T18:21:53.016Z,9.53
2023-01-28T18:24:21.580Z,9.77
2023-01-28T18:26:48.740Z,10.43
2023-01-28T18:29:20.448Z,9.40
2023-01-28T18:31:48.416Z,9.73
2023-01-28T18:34:15.582Z,10.38
2023-01-28T18:36:42.706Z,11.03
2023-01-28T18:39:13.825Z,10.98
2023-01-28T18:41:40.966Z,10.88
2023-01-28T18:44:14.492Z,10.07
2023-01-28T18:46:45.593Z,10.30
2023-01-28T18:49:13.031Z,10.80
2023-01-28T18:51:41.126Z,10.32
2023-01-28T18:54:23.378Z,10.98
2023-01-28T18:56:53.137Z,11.25
2023-01-28T18:59:20.243Z,12.70
2023-01-28T19:01:48.106Z,12.63
2023-01-28T19:04:15.960Z,12.75
2023-01-28T19:06:43.188Z,13.02
2023-01-28T19:09:11.178Z,12.45
2023-01-28T19:11:38.618Z,12.07
2023-01-28T19:14:06.306Z,12.73
2023-01-28T19:16:40.426Z,12.50
2023-01-28T19:19:07.446Z,11.90
2023-01-28T19:21:37.835Z,12.27
2023-01-28T19:24:07.164Z,12.35
2023-01-28T19:26:34.133Z,11.95
2023-01-28T19:29:01.862Z,12.23
2023-01-28T19:31:34.971Z,12.13
2023-01-28T19:34:02.281Z,12.50
2023-01-28T19:36:31.236Z,12.52
2023-01-28T19:39:02.419Z,12.05
2023-01-28T19:41:29.871Z,13.02
2023-01-28T19:43:57.137Z,12.57
2023-01-28T19:46:24.655Z,13.18
2023-01-28T19:48:51.640Z,13.77
2023-01-28T19:51:18.777Z,12.57
2023-01-28T19:53:45.906Z,12.15
2023-01-28T19:56:14.804Z,12.52
2023-01-28T19:58:43.523Z,12.80
2023-01-28T20:01:22.495Z,12.45
2023-01-28T20:04:00.044Z,12.48
2023-01-28T20:06:28.859Z,12.93
2023-01-28T20:08:58.531Z,12.60
2023-01-28T20:11:25.699Z,13.00
2023-01-28T20:13:55.689Z,12.30
2023-01-28T20:16:27.601Z,12.27
2023-01-28T20:18:56.032Z,12.45
2023-01-28T20:21:23.640Z,12.85
2023-01-28T20:23:52.580Z,13.65
2023-01-28T20:26:21.841Z,12.55
2023-01-28T20:28:50.338Z,13.02
2023-01-28T20:31:18.197Z,12.43
2023-01-28T20:33:45.348Z,12.23
2023-01-28T20:36:13.298Z,12.63
2023-01-28T20:38:47.270Z,14.45
2023-01-28T20:41:16.531Z,13.80
2023-01-28T20:43:44.684Z,14.45
2023-01-28T20:46:14.211Z,14.57
2023-01-28T20:48:41.401Z,14.40
2023-01-28T20:51:12.440Z,14.13
2023-01-28T20:53:39.783Z,14.23
2023-01-28T20:56:09.342Z,15.55
2023-01-28T20:58:36.796Z,15.07
2023-01-28T21:01:04.861Z,14.85
2023-01-28T21:03:32.528Z,14.27
2023-01-28T21:06:00.868Z,15.25
2023-01-28T21:08:27.559Z,16.15
2023-01-28T21:10:55.227Z,14.75
2023-01-28T21:13:22.089Z,14.70
2023-01-28T21:15:54.457Z,14.75
2023-01-28T21:18:21.908Z,15.20
2023-01-28T21:20:49.404Z,15.82
2023-01-28T21:23:16.579Z,14.98
2023-01-28T21:25:46.737Z,15.07
2023-01-28T21:28:17.544Z,15.43
2023-01-28T21:30:45.679Z,14.20
2023-01-28T21:33:17.414Z,15.13
2023-01-28T21:35:45.015Z,15.48
2023-01-28T21:38:12.469Z,14.60
2023-01-28T21:40:39.777Z,15.30
2023-01-28T21:43:07.222Z,14.65
2023-01-28T21:45:34.330Z,15.82
2023-01-28T21:48:01.426Z,15.32
2023-01-28T21:50:28.583Z,15.30
2023-01-28T21:52:55.520Z,16.25
2023-01-28T21:55:23.233Z,15.60
2023-01-28T21:58:10.253Z,15.88
2023-01-28T22:00:37.955Z,15.63
2023-01-28T22:03:05.038Z,14.90
2023-01-28T22:05:32.182Z,16.40
2023-01-28T22:07:59.374Z,15.07
2023-01-28T22:10:26.526Z,15.27
2023-01-28T22:12:53.564Z,15.45
2023-01-28T22:15:20.791Z,15.88
2023-01-28T22:17:47.651Z,16.58
2023-01-28T22:20:15.139Z,14.82
2023-01-28T22:22:42.504Z,15.70
2023-01-28T22:25:10.072Z,15.43
2023-01-28T22:27:37.085Z,15.23
2023-01-28T22:30:05.072Z,15.52
2023-01-28T22:32:32.095Z,16.17
2023-01-28T22:35:00.393Z,16.25
2023-01-28T22:37:29.456Z,14.73
2023-01-28T22:39:56.796Z,15.70
2023-01-28T22:42:24.131Z,14.75
2023-01-28T22:44:51.225Z,15.57
2023-01-28T22:47:18.331Z,15.40
2023-01-28T22:49:45.339Z,16.10
2023-01-28T22:52:12.750Z,14.77
2023-01-28T22:54:43.422Z,16.42
2023-01-28T22:57:11.804Z,15.13
2023-01-28T22:59:41.888Z,15.15
2023-01-28T23:02:10.767Z,14.85
2023-01-28T23:04:37.799Z,16.40
2023-01-28T23:07:05.429Z,16.30
2023-01-28T23:09:32.208Z,15.32
2023-01-28T23:11:59.151Z,16.17
2023-01-28T23:14:44.630Z,15.55
2023-01-28T23:17:30.054Z,15.50
2023-01-28T23:20:15.778Z,14.98
2023-01-28T23:23:01.315Z,16.63
2023-01-28T23:25:28.520Z,15.45
2023-01-28T23:27:55.805Z,16.50
2023-01-28T23:30:25.638Z,15.88
2023-01-28T23:32:56.069Z,15.90
2023-01-28T23:35:26.070Z,15.63
2023-01-28T23:37:54.273Z,16.17
2023-01-28T23:40:24.459Z,15.73
2023-01-28T23:42:51.632Z,16.40
2023-01-28T23:45:18.561Z,16.15
2023-01-28T23:47:45.257Z,16.02
2023-01-28T23:50:12.120Z,16.08
2023-01-28T23:52:38.988Z,16.15
2023-01-28T23:55:06.338Z,16.83
2023-01-28T23:57:33.779Z,16.48
